createdAt,value
2017-09-26T00:00:34.662Z,9.53
2017-09-26T00:02:40.992Z,9.40
2017-09-26T00:04:48.901Z,9.17
2017-09-26T00:06:54.305Z,9.67
2017-09-26T00:08:59.501Z,9.17
2017-09-26T00:11:06.180Z,9.17
2017-09-26T00:13:11.687Z,9.70
2017-09-26T00:15:18.401Z,9.30
2017-09-26T00:17:26.273Z,8.70
2017-09-26T00:19:34.708Z,7.67
2017-09-26T00:21:41.807Z,7.60
2017-09-26T00:23:49.003Z,10.27
2017-09-26T00:25:55.125Z,8.87
2017-09-26T00:28:02.027Z,8.87
2017-09-26T00:30:08.043Z,8.90
2017-09-26T00:32:13.257Z,8.10
2017-09-26T00:34:19.946Z,10.07
2017-09-26T00:36:26.581Z,9.77
2017-09-26T00:38:33.773Z,7.60
2017-09-26T00:40:39.874Z,9.10
2017-09-26T00:42:47.649Z,9.97
2017-09-26T00:44:53.189Z,8.43
2017-09-26T00:46:59.980Z,8.60
2017-09-26T00:49:05.440Z,9.23
2017-09-26T00:51:11.085Z,9.10
2017-09-26T00:53:18.025Z,9.43
2017-09-26T00:55:26.822Z,8.43
2017-09-26T00:57:34.471Z,8.30
2017-09-26T00:59:40.729Z,8.53
2017-09-26T01:01:49.387Z,10.03
2017-09-26T01:03:55.820Z,9.67
2017-09-26T01:06:02.988Z,8.93
2017-09-26T01:08:09.330Z,8.80
2017-09-26T01:10:16.804Z,9.07
2017-09-26T01:12:23.841Z,8.90
2017-09-26T01:14:31.347Z,9.07
2017-09-26T01:16:37.761Z,9.40
2017-09-26T01:18:43.358Z,8.80
2017-09-26T01:20:52.463Z,10.27
2017-09-26T01:22:58.620Z,9.30
2017-09-26T01:25:04.907Z,9.90
2017-09-26T01:27:11.812Z,10.17
2017-09-26T01:29:18.571Z,9.73
2017-09-26T01:31:24.845Z,10.20
2017-09-26T01:33:33.902Z,10.67
2017-09-26T01:35:39.954Z,8.77
2017-09-26T01:37:45.616Z,9.23
2017-09-26T01:39:53.709Z,10.17
2017-09-26T01:42:00.201Z,9.87
2017-09-26T01:44:06.704Z,8.63
2017-09-26T01:46:13.309Z,9.93
2017-09-26T01:48:20.313Z,10.43
2017-09-26T01:50:26.147Z,9.67
2017-09-26T01:52:34.552Z,9.60
2017-09-26T01:54:41.793Z,10.60
2017-09-26T01:56:51.582Z,9.00
2017-09-26T01:59:00.270Z,10.53
2017-09-26T02:01:06.036Z,10.90
2017-09-26T02:03:11.971Z,11.30
2017-09-26T02:05:19.261Z,10.67
2017-09-26T02:07:25.419Z,10.47
2017-09-26T02:09:34.047Z,11.40
2017-09-26T02:11:39.720Z,11.20
2017-09-26T02:13:45.988Z,11.83
2017-09-26T02:15:53.080Z,14.07
2017-09-26T02:17:58.545Z,13.27
2017-09-26T02:20:04.641Z,11.13
2017-09-26T02:22:11.116Z,13.20
2017-09-26T02:24:16.747Z,12.80
2017-09-26T02:26:24.450Z,11.87
2017-09-26T02:28:32.071Z,12.57
2017-09-26T02:30:39.874Z,11.10
2017-09-26T02:32:45.864Z,12.37
2017-09-26T02:34:53.114Z,12.20
2017-09-26T02:36:59.020Z,13.20
2017-09-26T02:39:04.774Z,14.20
2017-09-26T02:41:10.342Z,12.00
2017-09-26T02:43:15.562Z,13.80
2017-09-26T02:45:21.493Z,12.30
2017-09-26T02:47:27.740Z,11.80
2017-09-26T02:49:35.591Z,12.07
2017-09-26T02:51:44.133Z,13.27
2017-09-26T02:53:52.181Z,12.93
2017-09-26T02:55:58.413Z,12.70
2017-09-26T02:58:04.957Z,12.20
2017-09-26T03:00:11.449Z,13.20
2017-09-26T03:02:16.784Z,12.60
2017-09-26T03:04:24.307Z,12.23
2017-09-26T03:06:31.076Z,12.73
2017-09-26T03:08:37.065Z,13.00
2017-09-26T03:10:43.386Z,12.67
2017-09-26T03:12:48.660Z,12.17
2017-09-26T03:14:55.610Z,12.13
2017-09-26T03:17:00.997Z,11.67
2017-09-26T03:19:06.280Z,13.63
2017-09-26T03:21:11.644Z,13.00
2017-09-26T03:23:17.399Z,13.60
2017-09-26T03:25:23.886Z,15.13
2017-09-26T03:27:30.295Z,14.67
2017-09-26T03:29:35.900Z,12.33
2017-09-26T03:31:44.016Z,13.80
2017-09-26T03:33:50.738Z,13.87
2017-09-26T03:38:13.265Z,12.50
2017-09-26T03:40:19.092Z,12.20
2017-09-26T03:42:27.146Z,12.40
2017-09-26T03:44:33.361Z,11.87
2017-09-26T03:46:39.195Z,13.10
2017-09-26T03:48:44.525Z,14.07
2017-09-26T03:50:49.837Z,11.87
2017-09-26T03:52:57.098Z,15.00
2017-09-26T03:55:02.652Z,13.93
2017-09-26T03:57:07.809Z,13.20
2017-09-26T03:59:13.456Z,13.10
2017-09-26T04:01:19.332Z,14.73
2017-09-26T04:03:25.693Z,13.03
2017-09-26T04:05:32.021Z,11.97
2017-09-26T04:07:39.524Z,17.10
2017-09-26T04:09:44.627Z,12.63
2017-09-26T04:11:50.103Z,14.30
2017-09-26T04:13:59.424Z,14.23
2017-09-26T04:16:05.250Z,14.03
2017-09-26T04:18:11.161Z,15.33
2017-09-26T04:20:17.077Z,14.37
2017-09-26T04:22:23.406Z,14.60
2017-09-26T04:24:29.411Z,13.60
2017-09-26T04:26:36.627Z,11.57
2017-09-26T04:28:42.908Z,14.00
2017-09-26T04:30:48.470Z,12.87
2017-09-26T04:32:54.191Z,12.23
2017-09-26T04:35:02.135Z,189.80
2017-09-26T04:37:07.816Z,513.43
2017-09-26T04:39:13.567Z,486.83
2017-09-26T04:41:19.499Z,394.67
2017-09-26T04:43:26.660Z,265.97
2017-09-26T04:45:33.873Z,224.03
2017-09-26T04:47:42.101Z,235.73
2017-09-26T04:49:47.502Z,195.47
2017-09-26T04:51:53.375Z,173.13
2017-09-26T04:54:02.220Z,179.43
2017-09-26T04:56:08.321Z,401.83
2017-09-26T04:58:15.745Z,683.77
2017-09-26T05:00:22.389Z,660.33
2017-09-26T05:02:28.305Z,386.10
2017-09-26T05:04:36.893Z,371.47
2017-09-26T05:06:43.497Z,342.33
2017-09-26T05:08:51.768Z,295.63
2017-09-26T05:10:59.295Z,282.53
2017-09-26T05:13:07.238Z,245.90
2017-09-26T05:15:12.855Z,226.77
2017-09-26T05:17:18.904Z,200.60
2017-09-26T05:19:26.001Z,174.17
2017-09-26T05:21:33.244Z,146.70
2017-09-26T05:23:40.287Z,143.93
2017-09-26T05:25:46.878Z,124.70
2017-09-26T05:27:52.547Z,118.10
2017-09-26T05:29:58.813Z,104.47
2017-09-26T05:32:05.500Z,95.10
2017-09-26T05:34:10.918Z,84.93
2017-09-26T05:36:18.885Z,75.60
2017-09-26T05:38:25.285Z,73.20
2017-09-26T05:40:31.361Z,65.93
2017-09-26T05:42:36.684Z,61.90
2017-09-26T05:44:42.909Z,54.90
2017-09-26T05:46:48.721Z,51.37
2017-09-26T05:48:54.367Z,54.40
2017-09-26T05:53:46.498Z,46.20
2017-09-26T05:55:57.278Z,44.60
2017-09-26T05:58:08.479Z,40.40
2017-09-26T06:00:18.470Z,40.50
2017-09-26T06:02:28.512Z,35.00
2017-09-26T06:04:36.609Z,34.13
2017-09-26T06:06:42.743Z,31.47
2017-09-26T06:08:48.238Z,30.67
2017-09-26T06:10:56.415Z,30.80
2017-09-26T06:13:02.237Z,30.73
2017-09-26T06:15:07.909Z,27.97
2017-09-26T06:17:13.793Z,26.53
2017-09-26T06:19:19.082Z,24.67
2017-09-26T06:21:30.624Z,23.10
2017-09-26T06:23:41.007Z,22.50
2017-09-26T06:25:48.465Z,22.00
2017-09-26T06:27:54.025Z,20.70
2017-09-26T06:30:02.660Z,21.00
2017-09-26T06:32:08.405Z,20.37
2017-09-26T06:34:14.053Z,18.17
2017-09-26T06:36:21.404Z,18.30
2017-09-26T06:38:31.928Z,17.37
2017-09-26T06:40:37.786Z,19.60
2017-09-26T06:42:48.645Z,17.70
2017-09-26T06:44:56.558Z,17.60
2017-09-26T06:47:02.149Z,15.40
2017-09-26T06:49:08.225Z,16.30
2017-09-26T06:51:17.757Z,17.90
2017-09-26T06:53:24.924Z,16.20
2017-09-26T06:55:33.049Z,14.50
2017-09-26T06:57:41.921Z,15.80
2017-09-26T06:59:47.691Z,15.77
2017-09-26T07:01:53.628Z,15.80
2017-09-26T07:04:01.224Z,14.73
2017-09-26T07:06:07.048Z,13.03
2017-09-26T07:08:13.375Z,12.20
2017-09-26T07:10:19.833Z,13.10
2017-09-26T07:12:26.501Z,11.93
2017-09-26T07:14:33.026Z,11.90
2017-09-26T07:16:39.165Z,10.90
2017-09-26T07:18:44.659Z,10.70
2017-09-26T07:20:50.324Z,10.87
2017-09-26T07:22:57.361Z,11.53
2017-09-26T07:25:03.313Z,10.00
2017-09-26T07:27:14.462Z,9.47
2017-09-26T07:29:20.924Z,9.33
2017-09-26T07:31:28.410Z,9.50
2017-09-26T07:33:37.827Z,10.00
2017-09-26T07:35:51.756Z,9.40
2017-09-26T07:38:00.199Z,9.37
2017-09-26T07:40:08.540Z,8.80
2017-09-26T07:42:25.395Z,8.60
2017-09-26T07:44:34.673Z,8.20
2017-09-26T07:46:42.423Z,9.50
2017-09-26T07:48:48.716Z,8.00
2017-09-26T07:51:05.467Z,8.70
2017-09-26T07:53:12.825Z,8.60
2017-09-26T07:55:20.910Z,8.30
2017-09-26T07:57:34.139Z,8.20
2017-09-26T07:59:43.060Z,8.80
2017-09-26T08:01:49.294Z,9.07
2017-09-26T08:03:58.600Z,8.60
2017-09-26T08:06:08.301Z,9.40
2017-09-26T08:08:19.253Z,9.10
2017-09-26T08:10:30.790Z,7.73
2017-09-26T08:12:36.989Z,9.43
2017-09-26T08:14:46.621Z,9.33
2017-09-26T08:16:52.227Z,7.97
2017-09-26T08:18:58.133Z,8.30
2017-09-26T08:21:03.930Z,8.97
2017-09-26T08:23:11.193Z,9.27
2017-09-26T08:25:17.840Z,10.50
2017-09-26T08:27:31.317Z,8.40
2017-09-26T08:29:39.036Z,8.33
2017-09-26T08:31:44.918Z,8.23
2017-09-26T08:33:50.897Z,7.53
2017-09-26T08:36:01.175Z,8.33
2017-09-26T08:38:09.978Z,10.67
2017-09-26T08:40:17.643Z,7.80
2017-09-26T08:42:26.544Z,8.73
2017-09-26T08:44:34.983Z,10.10
2017-09-26T08:46:40.900Z,10.60
2017-09-26T08:48:47.503Z,9.70
2017-09-26T08:50:56.442Z,10.50
2017-09-26T08:53:05.412Z,9.63
2017-09-26T08:55:17.000Z,8.60
2017-09-26T08:57:33.837Z,9.10
2017-09-26T08:59:43.144Z,11.10
2017-09-26T09:01:52.511Z,9.73
2017-09-26T09:04:00.061Z,10.90
2017-09-26T09:06:06.023Z,9.80
2017-09-26T09:08:13.824Z,9.00
2017-09-26T09:10:21.992Z,9.70
2017-09-26T09:12:30.002Z,10.17
2017-09-26T09:14:40.699Z,9.60
2017-09-26T09:16:46.419Z,10.70
2017-09-26T09:18:57.456Z,12.80
2017-09-26T09:21:04.505Z,11.77
2017-09-26T09:23:11.251Z,9.60
2017-09-26T09:25:20.004Z,11.83
2017-09-26T09:27:27.447Z,12.10
2017-09-26T09:29:36.023Z,12.67
2017-09-26T09:31:41.565Z,10.87
2017-09-26T09:33:47.394Z,12.23
2017-09-26T09:35:53.574Z,11.03
2017-09-26T09:38:01.063Z,11.13
2017-09-26T09:40:10.235Z,14.20
2017-09-26T09:42:16.644Z,13.70
2017-09-26T09:44:30.115Z,11.70
2017-09-26T09:46:37.976Z,13.27
2017-09-26T09:48:47.789Z,12.60
2017-09-26T09:50:53.382Z,13.47
2017-09-26T09:52:59.924Z,12.40
2017-09-26T09:55:07.344Z,14.93
2017-09-26T09:57:13.023Z,13.30
2017-09-26T09:59:18.769Z,14.03
2017-09-26T10:01:25.316Z,12.47
2017-09-26T10:03:35.076Z,14.40
2017-09-26T10:05:41.079Z,15.60
2017-09-26T10:07:47.125Z,14.63
2017-09-26T10:09:52.604Z,13.50
2017-09-26T10:11:58.014Z,14.50
2017-09-26T10:14:04.011Z,14.80
2017-09-26T10:16:10.979Z,14.23
2017-09-26T10:18:17.956Z,15.90
2017-09-26T10:20:24.476Z,15.43
2017-09-26T10:22:30.434Z,14.10
2017-09-26T10:24:40.049Z,15.60
2017-09-26T10:26:46.144Z,13.40
2017-09-26T10:28:53.194Z,15.30
2017-09-26T10:31:00.953Z,13.87
2017-09-26T10:33:06.841Z,14.97
2017-09-26T10:35:13.480Z,16.83
2017-09-26T10:37:20.360Z,15.40
2017-09-26T10:39:27.631Z,14.73
2017-09-26T10:41:36.549Z,17.00
2017-09-26T10:43:44.085Z,16.07
2017-09-26T10:45:50.917Z,15.03
2017-09-26T10:48:04.065Z,17.90
2017-09-26T10:50:10.976Z,16.93
2017-09-26T10:52:25.489Z,15.97
2017-09-26T10:54:32.881Z,14.33
2017-09-26T10:56:39.978Z,16.30
2017-09-26T10:58:46.083Z,16.17
2017-09-26T11:00:51.846Z,16.40
2017-09-26T11:02:58.110Z,14.33
2017-09-26T11:05:04.813Z,13.73
2017-09-26T11:07:13.068Z,14.30
2017-09-26T11:09:19.807Z,14.43
2017-09-26T11:11:26.638Z,14.53
2017-09-26T11:13:32.967Z,15.60
2017-09-26T11:15:44.549Z,16.70
2017-09-26T11:17:53.181Z,17.70
2017-09-26T11:20:00.049Z,15.73
2017-09-26T11:22:09.754Z,15.33
2017-09-26T11:24:15.528Z,15.20
2017-09-26T11:26:22.559Z,14.87
2017-09-26T11:28:29.272Z,17.63
2017-09-26T11:30:34.777Z,16.47
2017-09-26T11:32:40.066Z,13.93
2017-09-26T11:34:46.597Z,14.50
2017-09-26T11:36:52.358Z,15.07
2017-09-26T11:39:00.363Z,15.80
2017-09-26T11:41:06.342Z,13.97
2017-09-26T11:43:11.833Z,15.53
2017-09-26T11:45:24.126Z,16.20
2017-09-26T11:47:35.549Z,15.33
2017-09-26T11:49:41.609Z,15.93
2017-09-26T11:51:47.215Z,22.00
2017-09-26T11:53:53.556Z,14.10
2017-09-26T11:56:00.447Z,15.00
2017-09-26T11:58:10.986Z,15.80
2017-09-26T12:00:18.736Z,15.97
2017-09-26T12:02:33.389Z,15.67
2017-09-26T12:04:40.343Z,15.50
2017-09-26T12:06:51.641Z,16.27
2017-09-26T12:08:57.634Z,14.90
2017-09-26T12:11:03.963Z,15.53
2017-09-26T12:13:15.898Z,14.13
2017-09-26T12:15:29.304Z,16.30
2017-09-26T12:17:47.928Z,17.77
2017-09-26T12:19:53.476Z,16.07
2017-09-26T12:22:02.026Z,17.13
2017-09-26T12:24:11.804Z,14.83
2017-09-26T12:26:28.599Z,16.43
2017-09-26T12:28:38.443Z,15.03
2017-09-26T12:31:01.894Z,15.50
2017-09-26T12:33:08.625Z,13.90
2017-09-26T12:35:20.442Z,14.07
2017-09-26T12:37:27.236Z,13.27
2017-09-26T12:39:34.964Z,13.43
2017-09-26T12:41:41.174Z,14.90
2017-09-26T12:43:50.262Z,14.13
2017-09-26T12:46:11.285Z,12.70
2017-09-26T12:48:23.933Z,12.97
2017-09-26T12:50:35.335Z,13.80
2017-09-26T12:52:45.087Z,13.30
2017-09-26T12:54:52.360Z,14.67
2017-09-26T12:56:58.717Z,13.67
2017-09-26T12:59:13.624Z,15.07
2017-09-26T13:01:22.963Z,14.43
2017-09-26T13:03:31.773Z,14.33
2017-09-26T13:05:38.357Z,14.00
2017-09-26T13:07:47.367Z,14.10
2017-09-26T13:10:04.703Z,12.70
2017-09-26T13:12:22.089Z,12.70
2017-09-26T13:14:35.720Z,11.80
2017-09-26T13:16:43.986Z,13.70
2017-09-26T13:18:50.361Z,13.70
2017-09-26T13:20:59.696Z,12.80
2017-09-26T13:23:06.926Z,13.23
2017-09-26T13:25:13.972Z,13.00
2017-09-26T13:27:24.492Z,13.87
2017-09-26T13:29:36.827Z,13.23
2017-09-26T13:31:45.191Z,11.70
2017-09-26T13:33:52.951Z,11.93
2017-09-26T13:36:00.240Z,12.47
2017-09-26T13:38:06.406Z,13.37
2017-09-26T13:40:18.411Z,14.90
2017-09-26T13:42:31.805Z,13.80
2017-09-26T13:44:46.926Z,12.73
2017-09-26T13:47:07.275Z,15.13
2017-09-26T13:49:16.669Z,12.87
2017-09-26T13:51:25.513Z,14.07
2017-09-26T13:53:32.955Z,13.77
2017-09-26T13:55:42.204Z,12.43
2017-09-26T13:57:48.277Z,12.77
2017-09-26T13:59:55.434Z,13.17
2017-09-26T14:02:02.788Z,12.50
2017-09-26T14:04:09.783Z,12.40
2017-09-26T14:06:17.330Z,14.53
2017-09-26T14:08:25.082Z,11.30
2017-09-26T14:10:33.404Z,13.93
2017-09-26T14:12:42.503Z,12.77
2017-09-26T14:14:48.356Z,11.60
2017-09-26T14:16:53.987Z,12.80
2017-09-26T14:19:00.800Z,11.90
2017-09-26T14:21:06.805Z,13.70
2017-09-26T14:23:17.910Z,12.23
2017-09-26T14:25:25.456Z,12.87
2017-09-26T14:27:34.865Z,12.30
2017-09-26T14:29:45.022Z,11.83
2017-09-26T14:31:51.016Z,13.23
2017-09-26T14:33:57.001Z,13.03
2017-09-26T14:36:03.618Z,12.37
2017-09-26T14:38:10.937Z,11.87
2017-09-26T14:40:17.106Z,11.23
2017-09-26T14:42:23.966Z,11.57
2017-09-26T14:44:32.579Z,11.07
2017-09-26T14:46:39.265Z,12.20
2017-09-26T14:48:45.741Z,11.83
2017-09-26T14:50:51.425Z,12.27
2017-09-26T14:52:57.509Z,12.60
2017-09-26T14:55:03.265Z,12.30
2017-09-26T14:57:14.354Z,11.67
2017-09-26T14:59:22.406Z,12.10
2017-09-26T15:01:29.600Z,95.77
2017-09-26T15:03:37.512Z,192.40
2017-09-26T15:05:45.185Z,649.60
2017-09-26T15:07:51.717Z,505.13
2017-09-26T15:09:59.726Z,316.17
2017-09-26T15:12:10.914Z,105.63
2017-09-26T15:14:17.819Z,46.33
2017-09-26T15:16:32.326Z,26.30
2017-09-26T15:18:43.379Z,18.80
2017-09-26T15:20:50.767Z,629.27
2017-09-26T15:22:58.761Z,101.53
2017-09-26T15:25:13.695Z,30.97
2017-09-26T15:27:20.882Z,21.17
2017-09-26T15:29:33.379Z,17.20
2017-09-26T15:31:40.600Z,16.03
2017-09-26T15:33:46.769Z,14.40
2017-09-26T15:35:58.986Z,16.27
2017-09-26T15:38:06.231Z,14.20
2017-09-26T15:40:13.463Z,14.37
2017-09-26T15:42:20.675Z,14.30
2017-09-26T15:44:28.656Z,13.90
2017-09-26T15:46:37.283Z,14.37
2017-09-26T15:48:44.952Z,16.30
2017-09-26T15:50:51.342Z,16.37
2017-09-26T15:53:30.552Z,13.80
2017-09-26T15:55:37.186Z,15.30
2017-09-26T15:57:45.572Z,15.50
2017-09-26T16:05:37.634Z,13.40
2017-09-26T16:07:50.436Z,15.10
2017-09-26T16:10:07.604Z,15.73
2017-09-26T16:12:24.361Z,13.67
2017-09-26T16:14:38.514Z,12.97
2017-09-26T16:16:51.888Z,13.70
2017-09-26T16:19:05.604Z,13.97
2017-09-26T16:21:21.735Z,14.33
2017-09-26T16:23:29.107Z,13.47
2017-09-26T16:27:47.070Z,12.23
2017-09-26T16:29:54.511Z,13.40
2017-09-26T16:32:05.619Z,12.30
2017-09-26T16:34:15.382Z,13.93
2017-09-26T16:36:26.325Z,13.20
2017-09-26T16:38:35.618Z,13.80
2017-09-26T16:40:42.801Z,13.87
2017-09-26T16:42:58.608Z,14.40
2017-09-26T16:45:10.674Z,13.70
2017-09-26T16:47:21.276Z,13.57
2017-09-26T16:49:37.884Z,13.77
2017-09-26T16:51:45.551Z,21.50
2017-09-26T16:53:52.831Z,287.43
2017-09-26T16:55:58.692Z,202.03
2017-09-26T16:58:05.204Z,141.27
2017-09-26T17:00:12.793Z,468.53
2017-09-26T17:02:24.536Z,253.00
2017-09-26T17:04:32.521Z,265.63
2017-09-26T17:06:40.017Z,522.80
2017-09-26T17:08:48.402Z,159.23
2017-09-26T17:10:55.723Z,55.07
2017-09-26T17:13:03.377Z,30.70
2017-09-26T17:15:10.365Z,24.07
2017-09-26T17:17:17.638Z,21.00
2017-09-26T17:19:24.524Z,20.70
2017-09-26T17:21:34.190Z,184.10
2017-09-26T17:23:49.711Z,99.70
2017-09-26T17:25:58.373Z,35.53
2017-09-26T17:28:05.365Z,23.27
2017-09-26T17:30:12.451Z,19.30
2017-09-26T17:32:20.295Z,18.53
2017-09-26T17:34:30.063Z,19.20
2017-09-26T17:36:39.491Z,16.80
2017-09-26T17:38:46.932Z,17.73
2017-09-26T17:40:53.951Z,299.93
2017-09-26T17:43:02.678Z,709.13
2017-09-26T17:45:09.993Z,82.40
2017-09-26T17:47:15.862Z,671.43
2017-09-26T17:49:25.550Z,444.23
2017-09-26T17:51:34.228Z,656.33
2017-09-26T17:56:24.082Z,595.93
2017-09-26T17:58:57.024Z,30.80
2017-09-26T18:01:13.101Z,31.33
2017-09-26T18:05:11.027Z,391.07
2017-09-26T18:09:47.583Z,230.63
2017-09-26T18:12:07.842Z,999.90
2017-09-26T18:14:32.795Z,81.60
2017-09-26T18:16:57.264Z,41.43
2017-09-26T18:19:11.589Z,340.13
2017-09-26T18:21:27.320Z,42.30
2017-09-26T18:23:44.947Z,23.43
2017-09-26T18:26:07.790Z,21.50
2017-09-26T18:28:20.690Z,20.53
2017-09-26T18:30:31.349Z,22.83
2017-09-26T18:32:50.607Z,25.97
2017-09-26T18:34:57.677Z,175.73
2017-09-26T18:46:25.408Z,22.80
2017-09-26T19:06:28.194Z,491.80
2017-09-26T19:08:33.924Z,57.13
2017-09-26T19:10:39.324Z,23.23
2017-09-26T19:12:44.783Z,21.17
2017-09-26T19:14:50.573Z,20.90
2017-09-26T19:17:34.788Z,276.53
2017-09-26T19:33:50.358Z,17.67
2017-09-26T19:41:47.762Z,15.63
2017-09-26T19:44:00.773Z,17.80
2017-09-26T19:46:07.311Z,17.90
2017-09-26T19:48:12.967Z,16.90
2017-09-26T19:50:18.535Z,424.77
2017-09-26T19:52:25.514Z,352.70
2017-09-26T20:00:22.591Z,121.47
2017-09-26T20:02:49.088Z,21.80
2017-09-26T20:14:01.679Z,65.83
2017-09-26T20:16:07.875Z,17.60
2017-09-26T20:18:14.283Z,75.33
2017-09-26T20:31:43.680Z,28.67
2017-09-26T20:33:50.312Z,17.70
2017-09-26T20:35:56.388Z,17.93
2017-09-26T20:38:08.659Z,18.23
2017-09-26T20:40:14.872Z,17.40
2017-09-26T20:42:26.101Z,16.27
2017-09-26T20:44:32.451Z,16.40
2017-09-26T20:46:39.287Z,68.73
2017-09-26T20:48:44.798Z,90.57
2017-09-26T20:50:50.965Z,231.03
2017-09-26T20:52:59.178Z,44.73
2017-09-26T20:55:06.582Z,69.20
2017-09-26T20:57:12.664Z,54.87
2017-09-26T20:59:19.826Z,35.50
2017-09-26T21:01:31.066Z,32.30
2017-09-26T21:03:41.136Z,29.07
2017-09-26T21:05:48.367Z,40.30
2017-09-26T21:07:54.566Z,28.43
2017-09-26T21:10:03.936Z,51.20
2017-09-26T21:12:10.517Z,31.90
2017-09-26T21:14:19.358Z,26.00
2017-09-26T21:16:25.822Z,22.90
2017-09-26T21:18:33.693Z,20.10
2017-09-26T21:20:43.715Z,19.20
2017-09-26T21:22:51.190Z,19.97
2017-09-26T21:24:58.208Z,17.57
2017-09-26T21:27:03.804Z,18.70
2017-09-26T21:29:14.122Z,18.47
2017-09-26T21:34:33.429Z,17.47
2017-09-26T21:36:40.078Z,16.27
2017-09-26T21:38:48.416Z,17.83
2017-09-26T21:40:54.311Z,17.30
2017-09-26T21:42:59.836Z,18.53
2017-09-26T21:45:12.065Z,17.73
2017-09-26T21:47:18.802Z,17.40
2017-09-26T21:49:26.680Z,17.30
2017-09-26T21:51:32.873Z,16.27
2017-09-26T21:53:40.385Z,16.70
2017-09-26T21:55:46.572Z,16.10
2017-09-26T21:57:52.788Z,16.27
2017-09-26T21:59:58.376Z,18.20
2017-09-26T22:02:04.543Z,16.50
2017-09-26T22:04:10.977Z,17.17
2017-09-26T22:06:16.623Z,15.97
2017-09-26T22:08:24.511Z,17.67
2017-09-26T22:10:30.726Z,17.70
2017-09-26T22:12:36.785Z,17.17
2017-09-26T22:14:43.478Z,17.23
2017-09-26T22:16:49.339Z,16.60
2017-09-26T22:18:55.448Z,17.40
2017-09-26T22:21:01.037Z,16.73
2017-09-26T22:23:07.719Z,15.77
2017-09-26T22:25:13.512Z,18.07
2017-09-26T22:27:19.902Z,16.00
2017-09-26T22:29:28.518Z,16.57
2017-09-26T22:31:37.529Z,17.90
2017-09-26T22:33:43.542Z,16.37
2017-09-26T22:35:49.722Z,17.30
2017-09-26T22:37:55.623Z,17.20
2017-09-26T22:40:02.065Z,17.30
2017-09-26T22:42:08.290Z,17.70
2017-09-26T22:44:13.784Z,17.80
2017-09-26T22:46:20.450Z,17.53
2017-09-26T22:48:27.046Z,17.63
2017-09-26T22:50:33.858Z,16.87
2017-09-26T22:52:41.297Z,16.13
2017-09-26T22:54:47.637Z,15.50
2017-09-26T22:56:54.863Z,16.53
2017-09-26T22:59:00.597Z,16.40
2017-09-26T23:01:07.084Z,15.87
2017-09-26T23:03:12.679Z,15.13
2017-09-26T23:05:19.325Z,16.30
2017-09-26T23:07:25.998Z,16.03
2017-09-26T23:09:39.143Z,15.50
2017-09-26T23:11:45.269Z,15.47
2017-09-26T23:13:51.971Z,16.23
2017-09-26T23:15:58.106Z,15.70
2017-09-26T23:18:04.479Z,15.50
2017-09-26T23:20:11.395Z,16.23
2017-09-26T23:22:18.372Z,16.00
2017-09-26T23:24:25.818Z,18.13
2017-09-26T23:26:35.687Z,16.40
2017-09-26T23:28:43.214Z,16.67
2017-09-26T23:30:49.681Z,16.83
2017-09-26T23:32:55.150Z,15.60
2017-09-26T23:35:04.374Z,15.93
2017-09-26T23:37:09.981Z,15.47
2017-09-26T23:39:17.039Z,16.20
2017-09-26T23:41:23.215Z,16.90
2017-09-26T23:43:31.340Z,17.27
2017-09-26T23:45:38.944Z,16.23
2017-09-26T23:47:44.505Z,15.73
2017-09-26T23:49:50.154Z,17.00
2017-09-26T23:51:55.593Z,15.43
2017-09-26T23:54:01.040Z,17.10
2017-09-26T23:56:06.977Z,16.97
2017-09-26T23:58:14.742Z,16.63
